Time;durP1;ratioP1;P1;durP2;ratioP2;P2;SDS_P1;SDS_P2;PMS_P1;PMS_P2;Temp;Humidity;BMP_temperature;BMP_pressure;BME280_temperature;BME280_humidity;BME280_pressure;Samples;Min_cycle;Max_cycle;Signal;HPM_P1;HPM_P2
2023/04/10 02:51:37;;;;;;;47.60;24.00;;;;;;;8.61;100.00;99880.47;106829;1303;545516;-39
2023/04/10 02:54:03;;;;;;;45.30;25.20;;;;;;;8.59;100.00;99883.48;107239;1315;22427;-42
2023/04/10 02:56:28;;;;;;;51.80;25.30;;;;;;;8.59;100.00;99885.94;107226;1314;22463;-39
2023/04/10 02:58:54;;;;;;;47.30;24.80;;;;;;;8.57;100.00;99888.80;107217;1315;22258;-40
2023/04/10 03:01:21;;;;;;;37.90;24.00;;;;;;;8.62;100.00;99887.92;107231;1315;22404;-39
2023/04/10 03:03:46;;;;;;;36.20;21.60;;;;;;;8.68;100.00;99891.01;107225;1315;22225;-40
2023/04/10 03:06:11;;;;;;;33.90;22.40;;;;;;;8.68;100.00;99893.13;107234;1312;130805;-39
2023/04/10 03:08:36;;;;;;;46.60;23.10;;;;;;;8.61;100.00;99890.03;107386;1312;22434;-38
2023/04/10 03:11:02;;;;;;;34.40;21.30;;;;;;;8.61;100.00;99890.90;107365;1312;22158;-38
2023/04/10 03:13:27;;;;;;;40.40;22.30;;;;;;;8.58;100.00;99892.09;107385;1312;22248;-39
2023/04/10 03:15:52;;;;;;;38.50;21.40;;;;;;;8.60;100.00;99891.67;107605;1310;22976;-40
2023/04/10 03:18:18;;;;;;;33.60;20.60;;;;;;;8.63;100.00;99898.70;107588;1311;22952;-39
2023/04/10 03:20:43;;;;;;;42.70;21.50;;;;;;;8.61;100.00;99903.00;107591;1311;24125;-39
2023/04/10 03:23:08;;;;;;;39.60;21.50;;;;;;;8.52;100.00;99905.09;107582;1310;22299;-37
2023/04/10 03:25:34;;;;;;;36.90;22.40;;;;;;;8.53;100.00;99906.45;107575;1310;22422;-39
2023/04/10 03:27:59;;;;;;;33.70;21.20;;;;;;;8.49;100.00;99905.34;107582;1310;23078;-40
2023/04/10 03:30:25;;;;;;;47.40;22.10;;;;;;;8.42;100.00;99900.71;107589;1310;23120;-39
2023/04/10 03:32:50;;;;;;;34.10;21.20;;;;;;;8.52;100.00;99904.92;107593;1310;22152;-38
2023/04/10 03:35:15;;;;;;;41.40;20.70;;;;;;;8.53;100.00;99896.49;107597;1310;22249;-38
2023/04/10 03:37:41;;;;;;;27.50;19.30;;;;;;;8.53;100.00;99899.45;107568;1311;22245;-38
2023/04/10 03:40:08;;;;;;;37.90;20.40;;;;;;;8.50;100.00;99897.11;107574;1311;22847;-39
2023/04/10 03:42:34;;;;;;;27.10;18.50;;;;;;;8.51;100.00;99899.38;107613;1311;22456;-38
2023/04/10 03:45:03;;;;;;;46.60;20.10;;;;;;;8.43;100.00;99899.10;107611;1310;22246;-40
2023/04/10 03:47:28;;;;;;;35.70;19.50;;;;;;;8.35;100.00;99899.36;107592;1310;23052;-40
2023/04/10 03:49:53;;;;;;;37.50;19.70;;;;;;;8.35;100.00;99902.33;107590;1310;22324;-39
2023/04/10 03:52:19;;;;;;;36.20;20.50;;;;;;;8.33;100.00;99901.21;107580;1310;22271;-40
2023/04/10 03:54:44;;;;;;;29.40;19.30;;;;;;;8.26;100.00;99903.37;107593;1310;22477;-38
2023/04/10 03:57:10;;;;;;;39.00;19.40;;;;;;;8.29;100.00;99908.48;107579;1310;23778;-38
2023/04/10 03:59:35;;;;;;;46.10;18.60;;;;;;;8.31;100.00;99908.98;107572;1310;22202;-40
2023/04/10 04:02:00;;;;;;;51.40;19.70;;;;;;;8.32;100.00;99916.09;107545;1310;23254;-38
2023/04/10 04:04:26;;;;;;;33.60;19.90;;;;;;;8.30;100.00;99917.38;107522;1310;22309;-39
2023/04/10 04:06:52;;;;;;;33.40;20.40;;;;;;;8.34;100.00;99916.88;107524;1310;22225;-41
2023/04/10 04:09:17;;;;;;;30.30;19.40;;;;;;;8.40;100.00;99917.38;107529;1310;22185;-40
2023/04/10 04:11:43;;;;;;;40.90;21.20;;;;;;;8.35;100.00;99923.33;107520;1310;23112;-40
2023/04/10 04:14:08;;;;;;;37.40;20.60;;;;;;;8.33;100.00;99919.36;107516;1310;22220;-40
2023/04/10 04:16:33;;;;;;;39.60;19.80;;;;;;;8.38;100.00;99925.45;107536;1310;22260;-40
2023/04/10 04:18:59;;;;;;;43.40;20.60;;;;;;;8.38;100.00;99929.30;107515;1310;22290;-40
2023/04/10 04:21:24;;;;;;;28.60;18.20;;;;;;;8.28;100.00;99934.37;107292;1310;22305;-40
2023/04/10 04:23:49;;;;;;;28.70;18.70;;;;;;;8.26;100.00;99936.90;107521;1310;22316;-40
2023/04/10 04:26:15;;;;;;;36.40;19.00;;;;;;;8.34;100.00;99932.27;107512;1310;22438;-39
2023/04/10 04:28:40;;;;;;;30.90;19.10;;;;;;;8.34;100.00;99933.85;107533;1310;22247;-38
2023/04/10 04:31:05;;;;;;;35.20;18.90;;;;;;;8.34;100.00;99936.11;107502;1310;22295;-40
2023/04/10 04:33:31;;;;;;;34.60;20.10;;;;;;;8.35;100.00;99939.58;107545;1310;22930;-38
2023/04/10 04:35:56;;;;;;;32.40;19.20;;;;;;;8.36;100.00;99943.36;107538;1310;22419;-39
2023/04/10 04:38:22;;;;;;;27.10;18.30;;;;;;;8.38;100.00;99945.05;107520;1310;23343;-39
2023/04/10 04:40:47;;;;;;;33.30;18.90;;;;;;;8.43;100.00;99941.58;107510;1310;22271;-40
2023/04/10 04:43:12;;;;;;;38.80;19.80;;;;;;;8.46;100.00;99943.92;107533;1310;22391;-39
2023/04/10 04:45:37;;;;;;;40.90;19.70;;;;;;;8.49;100.00;99948.71;107504;1310;22237;-39
2023/04/10 04:48:03;;;;;;;37.00;20.50;;;;;;;8.53;100.00;99953.96;107511;1310;22231;-38
2023/04/10 04:50:28;;;;;;;30.00;19.00;;;;;;;8.52;100.00;99950.68;107508;1310;22215;-39
2023/04/10 04:52:54;;;;;;;41.00;19.50;;;;;;;8.48;100.00;99943.67;107534;1310;22232;-38
2023/04/10 04:55:19;;;;;;;33.10;18.30;;;;;;;8.51;100.00;99945.31;107504;1310;22118;-38
2023/04/10 04:57:44;;;;;;;31.40;19.40;;;;;;;8.52;100.00;99945.81;107506;1310;22507;-40
2023/04/10 05:00:10;;;;;;;35.10;18.10;;;;;;;8.57;100.00;99944.23;107492;1311;22220;-41
2023/04/10 05:02:35;;;;;;;33.40;18.60;;;;;;;8.58;100.00;99948.39;107534;1310;22616;-40
2023/04/10 05:05:01;;;;;;;36.10;18.00;;;;;;;8.53;100.00;99951.55;107536;1310;22248;-41
2023/04/10 05:07:26;;;;;;;31.90;18.10;;;;;;;8.54;100.00;99954.10;107397;1299;22496;-41
2023/04/10 05:09:52;;;;;;;30.30;18.40;;;;;;;8.60;100.00;99957.39;107484;1310;24413;-39
2023/04/10 05:12:17;;;;;;;30.90;19.30;;;;;;;8.64;100.00;99962.12;107511;1310;22226;-41
2023/04/10 05:14:43;;;;;;;32.00;18.80;;;;;;;8.71;100.00;99965.56;107505;1310;23251;-40
2023/04/10 05:17:09;;;;;;;28.50;17.10;;;;;;;8.75;100.00;99966.11;107525;1310;23529;-39
2023/04/10 05:19:34;;;;;;;34.50;17.30;;;;;;;8.72;100.00;99969.55;107516;1289;22489;-39
2023/04/10 05:22:00;;;;;;;30.00;16.60;;;;;;;8.70;100.00;99973.80;107513;1310;22418;-40
2023/04/10 05:24:25;;;;;;;28.30;17.10;;;;;;;8.65;100.00;99980.98;107517;1310;22472;-41
2023/04/10 05:26:50;;;;;;;28.20;16.90;;;;;;;8.62;100.00;99982.84;107517;1310;22230;-40
2023/04/10 05:29:15;;;;;;;24.00;16.40;;;;;;;8.66;100.00;99982.70;107478;1310;22225;-39
2023/04/10 05:31:41;;;;;;;41.10;18.00;;;;;;;8.69;100.00;99982.39;107514;1310;22299;-39
2023/04/10 05:34:06;;;;;;;26.50;17.20;;;;;;;8.70;100.00;99986.05;107497;1310;22237;-41
2023/04/10 05:36:31;;;;;;;25.40;16.70;;;;;;;8.75;100.00;99985.52;107520;1310;23374;-39
2023/04/10 05:38:57;;;;;;;34.00;15.90;;;;;;;8.81;100.00;99982.33;107504;1310;22541;-40
2023/04/10 05:41:22;;;;;;;29.90;18.40;;;;;;;8.78;100.00;99983.99;107524;1310;23011;-40
2023/04/10 05:43:48;;;;;;;22.70;15.60;;;;;;;8.81;100.00;99985.10;107517;1310;22294;-41
2023/04/10 05:46:14;;;;;;;30.20;18.10;;;;;;;8.79;100.00;99989.02;107514;1310;23010;-41
2023/04/10 05:48:39;;;;;;;26.30;16.00;;;;;;;8.64;100.00;99985.89;107508;1310;22245;-39
2023/04/10 05:51:04;;;;;;;22.10;15.90;;;;;;;8.60;100.00;99989.18;107496;1310;22221;-40
2023/04/10 05:53:31;;;;;;;27.70;16.50;;;;;;;8.65;100.00;99987.27;107527;1310;22528;-41
2023/04/10 05:55:58;;;;;;;28.30;16.90;;;;;;;8.59;100.00;99983.98;107524;1310;22520;-40
2023/04/10 05:58:24;;;;;;;23.60;15.90;;;;;;;8.57;100.00;99984.77;107513;1310;22680;-40
2023/04/10 06:00:50;;;;;;;22.30;15.30;;;;;;;8.61;100.00;99987.39;107539;1310;22875;-41
2023/04/10 06:03:15;;;;;;;27.50;16.00;;;;;;;8.64;100.00;99988.54;107506;1310;22494;-40
2023/04/10 06:05:41;;;;;;;26.60;17.40;;;;;;;8.59;100.00;99992.56;107516;1310;22219;-40
2023/04/10 06:08:06;;;;;;;29.40;18.20;;;;;;;8.58;100.00;99991.20;107515;1310;22573;-41
2023/04/10 06:10:31;;;;;;;28.00;19.70;;;;;;;8.61;100.00;99988.98;107528;1310;22528;-41
2023/04/10 06:12:57;;;;;;;27.50;19.20;;;;;;;8.70;100.00;99982.73;107506;1310;22378;-40
2023/04/10 06:15:22;;;;;;;26.90;17.70;;;;;;;8.76;100.00;99989.31;107525;1310;22953;-40
2023/04/10 06:17:47;;;;;;;31.20;18.30;;;;;;;8.73;100.00;99987.01;107536;1310;22244;-41
2023/04/10 06:20:13;;;;;;;31.90;19.40;;;;;;;8.79;100.00;99987.83;107506;1310;22285;-41
2023/04/10 06:22:38;;;;;;;32.90;19.00;;;;;;;8.87;100.00;99986.13;107503;1310;22325;-38
2023/04/10 06:25:04;;;;;;;37.10;20.70;;;;;;;8.93;100.00;99987.12;107510;1310;22288;-41
2023/04/10 06:27:30;;;;;;;38.70;19.50;;;;;;;8.97;100.00;99993.97;107533;1310;22249;-40
2023/04/10 06:29:55;;;;;;;31.10;20.70;;;;;;;8.92;100.00;99992.95;107526;1310;22236;-39
2023/04/10 06:32:21;;;;;;;43.50;22.40;;;;;;;8.94;100.00;99992.70;107522;1310;22237;-41
2023/04/10 06:34:46;;;;;;;39.70;23.00;;;;;;;8.98;100.00;99988.15;107500;1307;22264;-39
2023/04/10 06:37:11;;;;;;;46.10;27.30;;;;;;;9.06;100.00;99993.64;107507;1310;23378;-40
2023/04/10 06:39:38;;;;;;;46.00;26.20;;;;;;;9.09;100.00;99999.28;107518;1310;23097;-39
2023/04/10 06:42:03;;;;;;;43.40;25.80;;;;;;;9.14;100.00;99997.89;107526;1310;23001;-38
2023/04/10 06:44:29;;;;;;;49.90;28.30;;;;;;;9.17;100.00;99995.84;107538;1310;22894;-39
2023/04/10 06:46:54;;;;;;;44.80;25.70;;;;;;;9.20;100.00;99994.30;107507;1310;22298;-40
2023/04/10 06:49:20;;;;;;;44.70;26.40;;;;;;;9.25;100.00;99996.75;107518;1310;23283;-38
2023/04/10 06:51:47;;;;;;;48.70;28.10;;;;;;;9.35;100.00;99998.11;107486;1310;22317;-40
2023/04/10 06:54:12;;;;;;;53.30;27.00;;;;;;;9.36;100.00;99994.23;107515;1310;22931;-40
2023/04/10 06:56:37;;;;;;;46.40;27.50;;;;;;;9.45;100.00;99998.10;107502;1310;22275;-39
2023/04/10 06:59:03;;;;;;;45.50;27.80;;;;;;;9.51;100.00;99992.44;107521;1310;22301;-43
2023/04/10 07:01:28;;;;;;;49.10;28.10;;;;;;;9.61;100.00;99991.50;107530;1310;23177;-40
2023/04/10 07:03:53;;;;;;;51.60;26.50;;;;;;;9.69;100.00;99994.52;107525;1310;23270;-39
2023/04/10 07:06:18;;;;;;;50.80;28.90;;;;;;;9.68;100.00;99994.38;107519;1310;23173;-41
2023/04/10 07:08:44;;;;;;;63.20;29.90;;;;;;;9.75;100.00;99996.00;107492;1310;22288;-38
2023/04/10 07:11:09;;;;;;;50.50;28.70;;;;;;;9.85;100.00;99996.99;107494;1310;22245;-39
2023/04/10 07:13:37;;;;;;;44.00;27.20;;;;;;;9.84;100.00;99997.58;107530;1310;22241;-42
2023/04/10 07:16:03;;;;;;;46.10;26.20;;;;;;;9.81;100.00;100003.30;107506;1310;22882;-41
2023/04/10 07:18:28;;;;;;;46.70;26.60;;;;;;;9.86;100.00;100006.09;107513;1310;22411;-38
2023/04/10 07:20:53;;;;;;;46.40;27.30;;;;;;;9.79;100.00;100001.62;107519;1310;22578;-39
2023/04/10 07:23:19;;;;;;;45.10;27.10;;;;;;;9.82;100.00;100004.85;107497;1310;23349;-39
2023/04/10 07:25:45;;;;;;;46.60;25.90;;;;;;;9.83;100.00;100003.76;107536;1310;22246;-41
2023/04/10 07:28:10;;;;;;;50.30;26.50;;;;;;;9.86;100.00;100003.63;107521;1310;22141;-39
2023/04/10 07:30:36;;;;;;;47.90;26.40;;;;;;;9.90;100.00;100002.41;107518;1310;22251;-40
2023/04/10 07:33:01;;;;;;;44.00;26.00;;;;;;;9.98;100.00;100003.29;107514;1310;22242;-39
2023/04/10 07:35:26;;;;;;;53.90;27.80;;;;;;;10.07;100.00;100001.03;107501;1310;22348;-39
2023/04/10 07:37:53;;;;;;;46.20;26.90;;;;;;;10.14;100.00;99998.27;107544;1310;23008;-38
2023/04/10 07:40:19;;;;;;;49.20;28.30;;;;;;;10.23;100.00;99993.85;107542;1310;23188;-39
2023/04/10 07:42:44;;;;;;;46.10;27.50;;;;;;;10.28;100.00;99996.60;107540;1310;22849;-41
2023/04/10 07:45:11;;;;;;;44.00;25.40;;;;;;;10.37;99.96;99995.05;107548;1310;22228;-37
2023/04/10 07:47:36;;;;;;;47.00;26.10;;;;;;;10.41;99.40;99997.51;107539;1310;22324;-39
2023/04/10 07:50:02;;;;;;;45.30;27.90;;;;;;;10.41;98.99;99999.77;107517;1310;22227;-40
2023/04/10 07:52:27;;;;;;;47.30;26.80;;;;;;;10.47;98.92;100003.35;107537;1310;22253;-42
2023/04/10 07:54:52;;;;;;;50.90;29.10;;;;;;;10.49;98.74;100002.58;107508;1310;22368;-40
2023/04/10 07:57:17;;;;;;;55.40;29.40;;;;;;;10.63;98.12;100003.89;107546;1310;22235;-40
2023/04/10 07:59:43;;;;;;;46.70;28.50;;;;;;;10.85;97.66;99996.09;107368;1310;22212;-41
2023/04/10 08:02:08;;;;;;;49.40;28.00;;;;;;;11.12;98.04;100001.34;107556;1310;22241;-39
2023/04/10 08:04:33;;;;;;;51.60;29.90;;;;;;;11.18;97.04;100001.05;107540;1310;22298;-40
2023/04/10 08:06:58;;;;;;;48.50;30.10;;;;;;;11.27;96.05;100000.83;107520;1310;22260;-40
2023/04/10 08:09:24;;;;;;;50.70;29.90;;;;;;;11.27;95.05;99996.44;107536;1310;22399;-41
2023/04/10 08:11:49;;;;;;;45.40;26.20;;;;;;;11.38;95.42;99995.59;107542;1310;22330;-40
2023/04/10 08:14:15;;;;;;;46.20;29.30;;;;;;;11.18;93.89;99994.39;107522;1310;23217;-38
2023/04/10 08:16:40;;;;;;;44.40;28.30;;;;;;;11.30;94.56;99989.30;107554;1310;22248;-38
2023/04/10 08:19:05;;;;;;;42.20;27.00;;;;;;;11.50;94.26;99989.58;107540;1310;23057;-40
2023/04/10 08:21:31;;;;;;;47.80;28.80;;;;;;;11.58;93.07;99993.39;107525;1310;22435;-40
2023/04/10 08:24:04;;;;;;;46.70;28.40;;;;;;;11.77;93.32;99993.17;107543;1310;22235;-38
2023/04/10 08:26:29;;;;;;;42.20;26.70;;;;;;;11.84;92.62;99994.95;107031;1311;22302;-40
2023/04/10 08:28:57;;;;;;;44.50;27.50;;;;;;;11.99;92.45;99992.66;107526;1310;22901;-40
2023/04/10 08:31:23;;;;;;;42.70;26.40;;;;;;;11.99;91.92;99994.96;107547;1310;22312;-38
2023/04/10 08:33:49;;;;;;;45.90;28.20;;;;;;;11.96;90.89;99987.86;107538;1310;23059;-38
2023/04/10 08:36:15;;;;;;;38.90;26.00;;;;;;;12.13;90.93;99988.42;107546;1310;22457;-40
2023/04/10 08:38:42;;;;;;;38.20;24.30;;;;;;;12.08;89.89;99988.17;107529;1310;22262;-40
2023/04/10 08:41:11;;;;;;;41.50;24.50;;;;;;;12.10;90.17;99986.47;107563;1310;22298;-40
2023/04/10 08:43:38;;;;;;;38.10;23.90;;;;;;;12.12;90.02;99987.23;107571;1310;22406;-39
2023/04/10 08:46:03;;;;;;;34.60;23.30;;;;;;;12.27;89.71;99986.14;107547;1310;22231;-40
2023/04/10 08:48:39;;;;;;;32.70;21.80;;;;;;;12.37;89.84;99983.89;107518;1310;22232;-37
2023/04/10 08:51:08;;;;;;;36.00;22.90;;;;;;;12.43;88.16;99984.98;107537;1310;22247;-39
2023/04/10 08:53:39;;;;;;;32.40;21.20;;;;;;;12.69;89.10;99980.46;107544;1310;22233;-39
2023/04/10 08:56:06;;;;;;;28.10;19.30;;;;;;;12.92;88.43;99976.05;107541;1310;22270;-39
2023/04/10 08:58:31;;;;;;;32.40;20.50;;;;;;;12.99;85.98;99977.27;107535;1310;22247;-40
2023/04/10 09:00:57;;;;;;;32.40;20.60;;;;;;;13.17;85.22;99973.45;107549;1310;22336;-39
2023/04/10 09:03:23;;;;;;;32.50;20.20;;;;;;;13.42;84.87;99968.39;107548;1310;22399;-39
